FAOR

Olifants River Bridge Landing Strip Airport

Olifants River Bridge, South Africa
TAF FAOR 210400Z 2106/2212 VRB03KT CAVOK BECMG 2113/2115 05005KT BECMG 2118/2120 32006KT BECMG 2201/2203 07006KT TX17/2112Z TN05/2203Z
Issued Valid From Valid To
Jul-21 @ 04:00 UTC
(6 hours ago)
Jul-21 @ 06:00 UTC
(4 hours ago)
Jul-22 @ 12:00 UTC
(-1 days ago)
Jul-21 @ 06:00 to Jul-21 @ 13:00
TAF FAOR 210400Z 2106/2212 VRB03KT CAVOK
Wind Visibility Clouds Conditions
Variable at 3 knots 10,000+ meters
  • No significant clouds
Becoming Jul-21 @ 13:00 to Jul-21 @ 18:00
BECMG 2113/2115 05005KT
Wind Visibility Clouds Conditions
50° at 5 knots 10,000+ meters
  • No significant clouds
Becoming Jul-21 @ 18:00 to Jul-22 @ 01:00
BECMG 2118/2120 32006KT
Wind Visibility Clouds Conditions
320° at 6 knots 10,000+ meters
  • No significant clouds
Becoming Jul-22 @ 01:00 to Jul-22 @ 12:00
BECMG 2201/2203 07006KT TX17/2112Z TN05/2203Z
Wind Visibility Clouds Conditions
70° at 6 knots 10,000+ meters
  • No significant clouds
TAF FAOR 210400Z 2106/2212 VRB03KT CAVOK BECMG 2113/2115 05005KT BECMG 2118/2120 32006KT BECMG 2201/2203 07006KT TX17/2112Z TN05/2203Z
Issued Jul-21 @ 04:00 UTC
(6 hours ago)
Valid From Jul-21 @ 06:00 UTC
(4 hours ago)
Valid To Jul-22 @ 12:00 UTC
(-1 days ago)
Jul-21 @ 06:00 - Jul-21 @ 13:00
Wind Visibility
Variable at 3 knots 10,000+ meters
Clouds
  • No significant clouds
Conditions
Becoming Jul-21 @ 13:00 - Jul-21 @ 18:00
Wind Visibility
50° at 5 knots 10,000+ meters
Clouds
  • No significant clouds
Conditions
Becoming Jul-21 @ 18:00 - Jul-22 @ 01:00
Wind Visibility
320° at 6 knots 10,000+ meters
Clouds
  • No significant clouds
Conditions
Becoming Jul-22 @ 01:00 - Jul-22 @ 12:00
Wind Visibility
70° at 6 knots 10,000+ meters
Clouds
  • No significant clouds
Conditions